Time;durP1;ratioP1;P1;durP2;ratioP2;P2;SDS_P1;SDS_P2;PMS_P1;PMS_P2;Temp;Humidity;BMP_temperature;BMP_pressure;BME280_temperature;BME280_humidity;BME280_pressure;Samples;Min_cycle;Max_cycle;Signal;HPM_P1;HPM_P2
2023/05/07 00:01:55;;;;;;;4.13;3.00;;;;;;;13.55;96.21;101512.72;5092675;28;20094;-82
2023/05/07 00:04:24;;;;;;;4.13;2.40;;;;;;;13.66;92.07;101534.25;5093047;28;20395;-82
2023/05/07 00:06:49;;;;;;;2.80;2.47;;;;;;;13.57;93.05;101522.22;5093015;28;20368;-82
2023/05/07 00:09:16;;;;;;;3.27;2.53;;;;;;;13.66;94.50;101536.88;5092383;28;20024;-82
2023/05/07 00:11:41;;;;;;;2.30;2.10;;;;;;;13.63;92.56;101525.63;5092600;28;20016;-82
2023/05/07 00:14:07;;;;;;;2.60;2.17;;;;;;;13.64;91.90;101522.16;5093176;28;20023;-82
2023/05/07 00:16:32;;;;;;;2.17;2.00;;;;;;;13.67;91.41;101528.16;5092018;28;20471;-82
2023/05/07 00:18:57;;;;;;;2.10;1.90;;;;;;;13.67;92.33;101528.16;5092957;28;20043;-82
2023/05/07 00:21:25;;;;;;;2.40;1.97;;;;;;;13.64;91.30;101509.09;5092683;28;20110;-82
2023/05/07 00:23:51;;;;;;;2.17;1.98;;;;;;;13.62;91.07;101509.13;5092326;28;20024;-82
2023/05/07 00:26:25;;;;;;;1.70;1.60;;;;;;;13.71;91.21;101518.53;5092831;28;20028;-82
2023/05/07 00:28:50;;;;;;;2.00;1.80;;;;;;;13.65;94.05;101503.84;5093094;28;20364;-82
2023/05/07 00:31:15;;;;;;;1.80;1.70;;;;;;;13.71;92.59;101519.41;5092327;28;20050;-82
2023/05/07 00:33:46;;;;;;;2.37;1.73;;;;;;;13.70;91.71;101507.25;5092568;28;20123;-82
2023/05/07 00:36:12;;;;;;;1.60;1.50;;;;;;;13.68;91.78;101511.63;5092489;28;20099;-82
2023/05/07 00:38:37;;;;;;;1.70;1.60;;;;;;;13.70;91.67;101507.25;5091989;28;20527;-82
2023/05/07 00:41:02;;;;;;;1.63;1.50;;;;;;;13.71;91.42;101508.09;5093005;28;20028;-82
2023/05/07 00:43:28;;;;;;;1.87;1.77;;;;;;;13.72;91.88;101509.81;5091815;28;20472;-81
2023/05/07 00:45:54;;;;;;;1.63;1.53;;;;;;;13.67;91.96;101493.41;5092695;28;20500;-82
2023/05/07 00:48:19;;;;;;;2.27;2.07;;;;;;;13.69;94.53;101500.31;5092884;28;20403;-82
2023/05/07 00:50:45;;;;;;;2.57;2.10;;;;;;;13.69;92.99;101500.31;5091587;28;20039;-82
2023/05/07 00:53:11;;;;;;;2.28;2.00;;;;;;;13.67;92.74;101504.69;5092070;28;20024;-82
2023/05/07 00:55:37;;;;;;;1.90;1.80;;;;;;;13.67;92.21;101493.41;5092414;28;20032;-81
2023/05/07 00:58:02;;;;;;;2.57;2.30;;;;;;;13.68;94.45;101492.53;5091772;28;20040;-82
2023/05/07 01:00:28;;;;;;;3.77;2.70;;;;;;;13.66;95.36;101494.28;5092457;28;20399;-82
2023/05/07 01:02:53;;;;;;;2.77;2.37;;;;;;;13.67;93.27;101503.84;5092298;28;20020;-82
2023/05/07 01:05:21;;;;;;;3.80;2.83;;;;;;;13.62;97.51;101492.63;5091476;28;20485;-82
2023/05/07 01:07:48;;;;;;;3.42;2.60;;;;;;;13.57;94.62;101480.50;5072178;28;20048;-82
2023/05/07 01:10:14;;;;;;;2.50;2.30;;;;;;;13.57;93.80;101480.50;5072403;28;20050;-82
2023/05/07 01:12:40;;;;;;;3.25;2.60;;;;;;;13.65;94.44;101492.56;5075510;28;20084;-82
2023/05/07 01:15:08;;;;;;;2.72;2.40;;;;;;;13.64;93.30;101486.47;5076076;28;20116;-82
2023/05/07 01:17:35;;;;;;;2.15;1.95;;;;;;;13.68;92.63;101498.59;5075801;28;20029;-82
2023/05/07 01:20:00;;;;;;;2.03;1.83;;;;;;;13.69;92.75;101494.22;5075180;28;20483;-82
2023/05/07 01:22:37;;;;;;;2.27;2.07;;;;;;;13.71;92.37;101489.84;5076102;28;20028;-82
2023/05/07 01:25:03;;;;;;;;;;;;;;;13.72;92.33;101488.94;5076373;28;20479;-82
2023/05/07 01:27:28;;;;;;;2.47;2.00;;;;;;;13.73;92.60;101488.06;5075013;28;19912;-82
2023/05/07 01:29:55;;;;;;;1.90;1.80;;;;;;;13.68;93.44;101476.88;5084376;28;20033;-82
2023/05/07 01:32:27;;;;;;;3.60;2.28;;;;;;;13.68;96.63;101480.31;5095589;28;20032;-82
2023/05/07 01:34:54;;;;;;;2.40;2.20;;;;;;;13.62;95.02;101467.41;5095225;28;20028;-82
2023/05/07 01:37:20;;;;;;;3.75;2.60;;;;;;;13.62;97.06;101466.53;5095830;28;20490;-82
2023/05/07 01:39:49;;;;;;;;;;;;;;;13.58;100.00;101466.59;5095837;28;20103;-82
2023/05/07 01:42:14;;;;;;;7.10;4.78;;;;;;;13.54;100.00;101464.06;5096229;28;19922;-82
2023/05/07 01:44:40;;;;;;;9.50;5.77;;;;;;;13.50;100.00;101465.03;5095671;28;20391;-82
2023/05/07 01:47:06;;;;;;;7.87;4.80;;;;;;;13.48;100.00;101464.19;5094904;28;20063;-82
2023/05/07 01:49:31;;;;;;;5.70;4.10;;;;;;;13.41;98.85;101451.22;5095001;28;20013;-82
2023/05/07 01:51:58;;;;;;;6.90;4.37;;;;;;;13.44;99.89;101466.84;5095867;28;20092;-82
2023/05/07 01:54:29;;;;;;;6.15;4.15;;;;;;;13.42;98.43;101458.16;5094721;28;20027;-82
2023/05/07 01:56:56;;;;;;;5.05;3.45;;;;;;;13.45;98.40;101462.50;5095309;28;20024;-82
2023/05/07 01:59:22;;;;;;;8.32;5.10;;;;;;;13.33;100.00;101444.41;5095216;28;20141;-82
2023/05/07 02:01:47;;;;;;;9.60;5.43;;;;;;;13.40;100.00;101459.94;5094833;28;20111;-82
2023/05/07 02:04:12;;;;;;;6.23;4.30;;;;;;;13.29;98.79;101448.81;5095469;28;20020;-82
2023/05/07 02:06:40;;;;;;;4.97;3.73;;;;;;;13.37;99.43;101456.50;5095338;28;20024;-82
2023/05/07 02:09:06;;;;;;;10.48;5.50;;;;;;;13.28;100.00;101447.09;5094715;28;20027;-82
2023/05/07 02:11:31;;;;;;;10.60;6.43;;;;;;;13.33;100.00;101460.91;5095027;28;20024;-82
2023/05/07 02:13:57;;;;;;;11.93;6.40;;;;;;;13.31;100.00;101460.06;5095095;28;20051;-82
2023/05/07 02:16:23;;;;;;;13.57;8.20;;;;;;;13.20;100.00;101448.97;5094524;28;20020;-82
2023/05/07 02:18:48;;;;;;;12.38;7.28;;;;;;;13.25;100.00;101462.78;5095480;28;20104;-82
2023/05/07 02:21:14;;;;;;;11.43;6.80;;;;;;;13.15;100.00;101441.22;5095313;28;20103;-82
2023/05/07 02:23:39;;;;;;;14.23;8.30;;;;;;;13.20;100.00;101454.16;5093096;28;20054;-82
2023/05/07 02:26:04;;;;;;;15.77;9.03;;;;;;;13.15;100.00;101461.22;5095007;28;20035;-82
2023/05/07 02:28:30;;;;;;;13.43;7.83;;;;;;;13.18;100.00;101463.75;5094597;28;20081;-82
2023/05/07 02:30:55;;;;;;;11.27;6.77;;;;;;;13.14;100.00;101460.34;5093848;28;20028;-82
2023/05/07 02:33:20;;;;;;;10.67;6.27;;;;;;;13.12;100.00;101457.78;5094724;28;20032;-82
2023/05/07 02:35:46;;;;;;;8.93;5.77;;;;;;;13.21;100.00;101466.31;5094902;28;20035;-82
2023/05/07 02:38:11;;;;;;;5.80;4.30;;;;;;;13.21;100.00;101464.59;5094268;28;20042;-82
2023/05/07 02:40:39;;;;;;;4.03;3.40;;;;;;;13.20;100.00;101464.59;5094382;28;20444;-82
2023/05/07 02:43:05;;;;;;;5.07;3.40;;;;;;;13.26;100.00;101473.19;5093638;28;20065;-82
2023/05/07 02:45:32;;;;;;;4.10;3.10;;;;;;;13.28;100.00;101466.19;5094164;28;20736;-82
2023/05/07 02:48:02;;;;;;;4.38;2.90;;;;;;;13.30;100.00;101463.56;5094782;28;20031;-82
2023/05/07 02:50:27;;;;;;;4.85;3.30;;;;;;;13.23;100.00;101454.13;5093353;28;20486;-82
2023/05/07 02:52:53;;;;;;;4.20;3.07;;;;;;;13.30;100.00;101466.16;5094427;28;20158;-82
2023/05/07 02:55:21;;;;;;;3.07;2.77;;;;;;;13.33;100.00;101467.88;5094756;28;20020;-82
2023/05/07 02:57:46;;;;;;;3.15;2.70;;;;;;;13.37;99.86;101474.75;5093074;28;20036;-82
2023/05/07 03:00:19;;;;;;;4.03;3.10;;;;;;;13.37;99.47;101472.13;5094485;28;20073;-82
2023/05/07 03:02:45;;;;;;;3.53;2.80;;;;;;;13.41;99.28;101479.91;5094464;28;20023;-82
2023/05/07 03:05:11;;;;;;;3.20;2.77;;;;;;;13.43;99.10;101475.53;5093678;28;20024;-82
2023/05/07 03:07:37;;;;;;;2.90;2.40;;;;;;;13.43;99.13;101467.72;5093852;28;20463;-82
2023/05/07 03:10:03;;;;;;;2.83;2.53;;;;;;;13.44;98.70;101466.00;5094325;28;20024;-82
2023/05/07 03:12:29;;;;;;;3.35;2.80;;;;;;;13.44;98.60;101466.84;5093173;28;20032;-82
2023/05/07 03:14:54;;;;;;;2.80;2.53;;;;;;;13.35;98.78;101448.72;5094466;28;20048;-82
2023/05/07 03:17:29;;;;;;;4.30;2.80;;;;;;;13.44;98.63;101466.00;5093989;28;20464;-82
2023/05/07 03:19:54;;;;;;;3.53;2.60;;;;;;;13.36;98.19;101449.56;5093836;28;20035;-82
2023/05/07 03:22:20;;;;;;;3.13;2.60;;;;;;;13.42;98.42;101466.00;5093663;28;20028;-82
2023/05/07 03:24:45;;;;;;;2.87;2.57;;;;;;;13.42;98.14;101458.16;5093726;28;20046;-82
2023/05/07 03:27:11;;;;;;;3.57;2.80;;;;;;;13.44;98.25;101466.00;5093187;28;20030;-82
2023/05/07 03:29:36;;;;;;;2.70;2.50;;;;;;;13.43;98.32;101459.91;5093795;28;20464;-82
2023/05/07 03:32:01;;;;;;;3.13;2.83;;;;;;;13.43;97.94;101461.66;5093664;28;20123;-82
2023/05/07 03:34:27;;;;;;;3.00;2.70;;;;;;;13.46;97.98;101463.34;5091495;28;20055;-82
2023/05/07 03:36:52;;;;;;;3.50;2.70;;;;;;;13.44;98.30;101456.41;5093788;28;20028;-82
2023/05/07 03:39:17;;;;;;;2.90;2.60;;;;;;;13.48;98.26;101448.53;5092823;28;20111;-82
2023/05/07 03:41:42;;;;;;;4.23;2.80;;;;;;;13.44;98.08;101450.34;5093335;28;20024;-82
2023/05/07 03:44:08;;;;;;;2.77;2.50;;;;;;;13.44;98.56;101448.59;5093561;28;20028;-83
2023/05/07 03:46:43;;;;;;;2.43;2.23;;;;;;;13.46;98.49;101447.69;5092440;28;20028;-83
2023/05/07 03:49:08;;;;;;;3.55;2.83;;;;;;;13.39;99.98;101434.78;5093646;28;20073;-82
2023/05/07 03:51:33;;;;;;;2.83;2.40;;;;;;;13.43;99.08;101453.84;5093076;28;20020;-82
2023/05/07 03:53:59;;;;;;;3.50;2.70;;;;;;;13.40;98.52;101444.28;5092287;28;20024;-82
2023/05/07 03:56:26;;;;;;;3.07;2.70;;;;;;;13.39;98.40;101454.72;5093161;28;20020;-82
2023/05/07 03:58:52;;;;;;;3.90;2.85;;;;;;;13.38;98.16;101455.63;5093190;28;20076;-82
2023/05/07 04:01:17;;;;;;;3.20;2.80;;;;;;;13.37;98.08;101462.59;5092658;28;20388;-82
2023/05/07 04:03:42;;;;;;;3.10;2.77;;;;;;;13.39;99.57;101466.06;5093196;28;20020;-82
2023/05/07 04:06:08;;;;;;;4.63;3.10;;;;;;;13.39;98.68;101468.69;5093316;28;20384;-82
2023/05/07 04:08:33;;;;;;;3.00;2.70;;;;;;;13.36;98.15;101468.69;5092225;28;20039;-82
2023/05/07 04:10:58;;;;;;;4.00;2.83;;;;;;;13.41;98.35;101485.13;5093097;28;20012;-82
2023/05/07 04:13:30;;;;;;;3.37;2.60;;;;;;;13.41;98.26;101476.47;5093194;28;20439;-82
2023/05/07 04:15:55;;;;;;;3.78;3.00;;;;;;;13.35;100.00;101473.91;5092579;28;20020;-82
2023/05/07 04:18:21;;;;;;;4.90;3.43;;;;;;;13.38;100.00;101487.78;5092805;28;20521;-82
2023/05/07 04:20:47;;;;;;;4.93;3.47;;;;;;;13.37;98.95;101486.06;5088345;28;20021;-82
2023/05/07 04:23:13;;;;;;;4.32;3.17;;;;;;;13.38;98.81;101484.28;5071992;28;20373;-82
2023/05/07 04:25:38;;;;;;;3.50;2.90;;;;;;;13.39;98.26;101486.00;5072202;28;20031;-82
2023/05/07 04:28:15;;;;;;;4.57;3.07;;;;;;;13.38;98.15;101479.06;5072367;28;20115;-82
2023/05/07 04:30:41;;;;;;;3.60;2.92;;;;;;;13.42;98.00;101486.84;5071462;28;20028;-82
2023/05/07 04:33:06;;;;;;;3.73;3.00;;;;;;;13.42;98.04;101483.41;5086035;28;20032;-82
2023/05/07 04:35:32;;;;;;;3.80;2.97;;;;;;;13.40;98.20;101483.41;5091743;28;20483;-82
2023/05/07 04:37:57;;;;;;;3.67;2.90;;;;;;;13.41;98.15;101479.06;5091282;28;20446;-82
2023/05/07 04:40:22;;;;;;;5.53;3.53;;;;;;;13.37;100.00;101479.97;5092605;28;20024;-82
2023/05/07 04:42:57;;;;;;;3.80;3.10;;;;;;;13.40;98.88;101488.63;5092086;28;20020;-82
2023/05/07 04:45:22;;;;;;;3.45;2.90;;;;;;;13.31;99.09;101467.88;5091932;28;20024;-82
2023/05/07 04:47:48;;;;;;;3.83;2.90;;;;;;;13.42;98.89;101491.22;5092444;28;20035;-82
2023/05/07 04:50:13;;;;;;;3.40;2.90;;;;;;;13.42;99.41;101486.84;5091616;28;20059;-82
2023/05/07 04:52:39;;;;;;;3.30;2.80;;;;;;;13.39;98.96;101486.00;5091024;28;20101;-82
2023/05/07 04:55:04;;;;;;;3.53;3.00;;;;;;;13.37;99.65;101478.22;5092668;28;20024;-82
2023/05/07 04:57:30;;;;;;;5.00;3.80;;;;;;;13.38;100.00;101479.06;5091345;28;20048;-82
2023/05/07 04:59:55;;;;;;;7.53;4.67;;;;;;;13.36;100.00;101476.50;5092612;28;20028;-82
2023/05/07 05:02:20;;;;;;;6.10;4.30;;;;;;;13.37;100.00;101483.44;5092406;28;20031;-82
2023/05/07 05:04:46;;;;;;;5.73;4.00;;;;;;;13.41;100.00;101495.56;5091615;28;20028;-82
2023/05/07 05:07:11;;;;;;;6.47;4.60;;;;;;;13.40;100.00;101487.78;5092344;28;20024;-82
2023/05/07 05:09:36;;;;;;;7.53;4.80;;;;;;;13.43;100.00;101499.00;5092370;28;20024;-82
2023/05/07 05:12:02;;;;;;;5.50;4.00;;;;;;;13.46;100.00;101505.06;5091784;28;20579;-82
2023/05/07 05:14:27;;;;;;;6.97;4.70;;;;;;;13.44;100.00;101502.50;5088944;28;20032;-82
2023/05/07 05:16:53;;;;;;;9.93;5.93;;;;;;;13.48;100.00;101509.34;5072397;28;20107;-82
2023/05/07 05:19:18;;;;;;;12.40;7.17;;;;;;;13.49;100.00;101507.63;5072130;28;20037;-82
2023/05/07 05:21:43;;;;;;;17.53;10.80;;;;;;;13.44;100.00;101505.94;5071196;28;20085;-83
2023/05/07 05:24:09;;;;;;;16.83;9.93;;;;;;;13.48;100.00;101506.75;5058117;28;20029;-85
2023/05/07 05:26:34;;;;;;;14.83;8.90;;;;;;;13.52;100.00;101515.38;5071945;28;20455;-82
2023/05/07 05:28:59;;;;;;;13.00;7.77;;;;;;;13.52;100.00;101504.94;5073278;28;20461;-82
2023/05/07 05:31:25;;;;;;;11.77;7.33;;;;;;;13.62;100.00;101516.97;5074005;28;20032;-81
2023/05/07 05:33:50;;;;;;;12.80;7.60;;;;;;;13.64;100.00;101515.16;5082229;28;20524;-82
2023/05/07 05:36:16;;;;;;;19.43;12.77;;;;;;;13.64;100.00;101515.16;5072173;28;20056;-82
2023/05/07 05:38:41;;;;;;;23.20;16.23;;;;;;;13.62;100.00;101518.69;5082227;28;20035;-82
2023/05/07 05:41:06;;;;;;;21.63;15.43;;;;;;;13.62;100.00;101523.91;5092014;28;20055;-82
2023/05/07 05:43:32;;;;;;;19.47;12.40;;;;;;;13.62;100.00;101522.19;5092001;28;20193;-82
2023/05/07 05:45:57;;;;;;;21.23;14.70;;;;;;;13.63;100.00;101521.28;5091285;28;20024;-82
2023/05/07 05:48:25;;;;;;;21.87;15.40;;;;;;;13.64;100.00;101525.59;5091665;28;20028;-82
2023/05/07 05:50:51;;;;;;;19.50;12.98;;;;;;;13.68;100.00;101535.09;5078537;28;20028;-82
2023/05/07 05:53:16;;;;;;;20.77;14.67;;;;;;;13.67;100.00;101530.78;5070922;28;20405;-82
2023/05/07 05:55:42;;;;;;;22.17;16.27;;;;;;;13.69;100.00;101534.22;5071394;28;20031;-82
2023/05/07 05:58:08;;;;;;;23.07;17.90;;;;;;;13.68;100.00;101529.03;5083011;28;20111;-82
2023/05/07 06:00:33;;;;;;;21.88;16.13;;;;;;;13.71;100.00;101535.06;5094353;28;20497;-82
2023/05/07 06:02:59;;;;;;;26.90;21.23;;;;;;;13.69;100.00;101525.53;5095388;28;20024;-82
2023/05/07 06:05:24;;;;;;;22.40;16.80;;;;;;;13.74;100.00;101529.75;5095457;28;20023;-82
2023/05/07 06:07:49;;;;;;;20.13;13.63;;;;;;;13.81;100.00;101524.47;5094417;28;20030;-82
2023/05/07 06:10:15;;;;;;;20.50;14.87;;;;;;;13.85;100.00;101526.09;5095137;28;20464;-82
2023/05/07 06:12:40;;;;;;;21.13;14.83;;;;;;;13.86;100.00;101517.38;5094848;28;20072;-82
2023/05/07 06:15:06;;;;;;;21.90;16.00;;;;;;;13.93;100.00;101526.84;5093939;28;20383;-82
2023/05/07 06:17:31;;;;;;;22.07;16.07;;;;;;;14.00;100.00;101520.63;5094527;28;20024;-82
2023/05/07 06:19:56;;;;;;;25.07;19.60;;;;;;;13.98;100.00;101514.56;5094800;28;20039;-82
2023/05/07 06:22:22;;;;;;;21.90;16.43;;;;;;;14.10;100.00;101529.13;5094016;28;20075;-82
2023/05/07 06:24:47;;;;;;;23.20;17.30;;;;;;;14.11;100.00;101530.88;5094722;28;20028;-82
2023/05/07 06:27:12;;;;;;;20.30;13.73;;;;;;;14.21;100.00;101528.91;5095224;28;20016;-82
2023/05/07 06:29:37;;;;;;;22.50;15.87;;;;;;;14.28;100.00;101527.94;5093548;28;20104;-82
2023/05/07 06:32:24;;;;;;;18.93;12.23;;;;;;;14.39;100.00;101530.31;5094480;28;20046;-81
2023/05/07 06:34:49;;;;;;;20.90;14.90;;;;;;;14.42;100.00;101524.16;5094883;28;20028;-82
2023/05/07 06:37:14;;;;;;;20.40;14.17;;;;;;;14.47;100.00;101524.94;5094345;28;20016;-82
2023/05/07 06:39:40;;;;;;;23.37;18.30;;;;;;;14.48;100.00;101527.50;5094227;28;20031;-82
2023/05/07 06:42:05;;;;;;;29.63;22.77;;;;;;;14.34;100.00;101525.19;5093785;28;20016;-82
2023/05/07 06:44:31;;;;;;;24.33;18.57;;;;;;;14.40;100.00;101523.34;5094178;28;20031;-82
2023/05/07 06:46:57;;;;;;;25.37;19.67;;;;;;;14.45;100.00;101524.97;5094312;28;20020;-81
2023/05/07 06:49:22;;;;;;;25.47;20.00;;;;;;;14.47;100.00;101535.38;5092627;28;20027;-81
2023/05/07 06:51:47;;;;;;;22.73;17.13;;;;;;;14.51;100.00;101535.28;5094268;28;20368;-82
2023/05/07 06:54:12;;;;;;;20.23;13.87;;;;;;;14.60;100.00;101534.25;5093892;28;20028;-82
2023/05/07 06:56:38;;;;;;;26.20;21.00;;;;;;;14.61;100.00;101535.97;5093436;28;20032;-82
2023/05/07 06:59:03;;;;;;;24.53;18.87;;;;;;;14.59;100.00;101534.25;5094144;28;20052;-82
2023/05/07 07:01:29;;;;;;;26.53;20.93;;;;;;;14.56;100.00;101537.78;5094266;28;20427;-82
2023/05/07 07:03:54;;;;;;;25.03;19.87;;;;;;;14.57;100.00;101546.50;5093058;28;20480;-82
2023/05/07 07:06:20;;;;;;;24.27;18.10;;;;;;;14.56;100.00;101548.25;5094214;28;20031;-81
2023/05/07 07:08:45;;;;;;;21.30;15.57;;;;;;;14.60;100.00;101552.53;5093669;28;20396;-82
2023/05/07 07:11:10;;;;;;;22.47;16.40;;;;;;;14.62;100.00;101553.34;5093043;28;20028;-81
2023/05/07 07:13:36;;;;;;;21.70;15.50;;;;;;;14.61;100.00;101554.25;5093452;28;20063;-80
2023/05/07 07:16:01;;;;;;;22.50;16.73;;;;;;;14.60;100.00;101549.03;5093893;28;20075;-81
2023/05/07 07:18:27;;;;;;;22.67;17.23;;;;;;;14.59;100.00;101548.19;5092336;28;20046;-82
2023/05/07 07:20:52;;;;;;;21.03;14.67;;;;;;;14.63;100.00;101548.97;5093943;28;20039;-82
2023/05/07 07:23:19;;;;;;;22.43;16.87;;;;;;;14.66;100.00;101548.91;5093500;28;20036;-82
2023/05/07 07:25:45;;;;;;;20.13;13.32;;;;;;;14.71;100.00;101549.69;5076649;28;20032;-83
2023/05/07 07:28:11;;;;;;;22.23;16.20;;;;;;;14.74;100.00;101546.19;5093506;28;20020;-83
2023/05/07 07:30:39;;;;;;;19.13;12.27;;;;;;;14.77;100.00;101554.81;5093259;28;20141;-84
2023/05/07 07:33:05;;;;;;;18.48;11.30;;;;;;;14.85;100.00;101559.88;5092920;28;20047;-83
2023/05/07 07:35:30;;;;;;;15.93;9.83;;;;;;;14.94;100.00;101562.28;5093062;28;20024;-81
2023/05/07 07:37:56;;;;;;;20.20;13.53;;;;;;;14.90;100.00;101552.78;5093214;28;20024;-82
2023/05/07 07:40:21;;;;;;;20.23;13.00;;;;;;;15.06;100.00;101562.91;5092546;28;20024;-88
2023/05/07 07:42:47;;;;;;;21.77;15.47;;;;;;;15.07;100.00;101568.09;5093874;28;20471;-80
2023/05/07 07:45:12;;;;;;;25.67;20.20;;;;;;;15.03;100.00;101568.19;5093526;28;20101;-83
2023/05/07 07:47:38;;;;;;;25.27;19.83;;;;;;;15.01;100.00;101567.34;5092777;28;20023;-81
2023/05/07 07:50:05;;;;;;;21.70;15.48;;;;;;;15.07;100.00;101569.84;5093485;28;20487;-82
2023/05/07 07:52:30;;;;;;;20.35;13.55;;;;;;;15.16;100.00;101567.03;5092412;28;20479;-82
2023/05/07 07:54:56;;;;;;;22.67;16.07;;;;;;;15.22;100.00;101568.63;5093665;28;20033;-82
2023/05/07 07:57:21;;;;;;;20.00;14.30;;;;;;;15.30;100.00;101569.31;5088715;28;20044;-82
2023/05/07 07:59:46;;;;;;;23.37;17.07;;;;;;;15.37;100.00;101572.66;5072264;28;20039;-82
2023/05/07 08:02:11;;;;;;;25.10;20.27;;;;;;;15.39;100.00;101570.84;5062637;28;20044;-82
2023/05/07 08:04:37;;;;;;;25.03;19.93;;;;;;;15.41;100.00;101575.16;5071038;28;20472;-82
2023/05/07 08:07:03;;;;;;;26.17;19.93;;;;;;;15.46;100.00;101576.81;5071224;28;20480;-82
2023/05/07 08:09:28;;;;;;;25.23;20.53;;;;;;;15.33;100.00;101565.75;5072678;28;20073;-82
2023/05/07 08:11:53;;;;;;;27.13;21.03;;;;;;;15.39;100.00;101573.47;5072587;28;20139;-82
2023/05/07 08:14:18;;;;;;;24.00;17.80;;;;;;;15.50;100.00;101571.47;5071766;28;20036;-82
2023/05/07 08:16:44;;;;;;;21.10;14.73;;;;;;;15.71;100.00;101567.44;5072117;28;20032;-82
2023/05/07 08:19:10;;;;;;;23.60;17.97;;;;;;;15.84;100.00;101575.88;5072506;28;20384;-83
2023/05/07 08:21:39;;;;;;;22.27;15.60;;;;;;;15.95;100.00;101566.88;5071328;28;20025;-83
2023/05/07 08:24:05;;;;;;;24.17;18.60;;;;;;;16.14;99.67;101580.34;5072760;28;20113;-83
2023/05/07 08:26:30;;;;;;;24.80;19.67;;;;;;;16.12;99.76;101584.78;5072037;28;20431;-81
2023/05/07 08:28:56;;;;;;;23.40;17.30;;;;;;;16.18;99.53;101585.47;5070963;28;20020;-82
2023/05/07 08:31:21;;;;;;;24.60;18.37;;;;;;;16.19;98.68;101574.09;5072239;28;20029;-82
2023/05/07 08:33:46;;;;;;;21.93;15.30;;;;;;;16.32;99.31;101584.25;5072149;28;20080;-82
2023/05/07 08:36:11;;;;;;;22.67;16.73;;;;;;;16.40;97.39;101578.75;5072218;28;20117;-83
2023/05/07 08:38:37;;;;;;;23.53;17.53;;;;;;;16.36;96.56;101580.63;5072418;28;20025;-82
2023/05/07 08:41:03;;;;;;;22.75;16.73;;;;;;;16.42;97.18;101585.69;5072294;28;20028;-83
2023/05/07 08:43:31;;;;;;;22.07;16.00;;;;;;;16.54;97.54;101589.72;5071575;28;20024;-82
2023/05/07 08:46:01;;;;;;;22.42;15.40;;;;;;;16.63;94.49;101596.47;5072740;28;20036;-83
2023/05/07 08:48:29;;;;;;;20.75;13.93;;;;;;;16.70;96.39;101574.41;5072240;28;20024;-83
2023/05/07 08:50:54;;;;;;;20.08;12.77;;;;;;;16.86;95.07;101581.81;5071602;28;20031;-83
2023/05/07 08:53:20;;;;;;;21.27;15.43;;;;;;;16.93;93.19;101592.09;5072199;28;20020;-83
2023/05/07 08:55:47;;;;;;;20.35;13.82;;;;;;;17.03;94.05;101599.72;5071710;28;20056;-82
2023/05/07 08:58:15;;;;;;;19.52;13.57;;;;;;;17.13;94.61;101598.53;5083427;28;20044;-83
2023/05/07 09:00:41;;;;;;;23.05;16.33;;;;;;;17.08;92.44;101582.94;5092651;28;20424;-82
2023/05/07 09:03:06;;;;;;;;;;;;;;;17.10;93.00;101599.47;5090164;28;20020;-82
2023/05/07 09:05:32;;;;;;;19.80;14.03;;;;;;;17.18;94.61;101596.59;5089285;28;19919;-82
2023/05/07 09:08:02;;;;;;;22.30;15.63;;;;;;;17.18;92.31;101595.75;5087668;28;20118;-82
2023/05/07 09:10:29;;;;;;;20.52;14.73;;;;;;;17.21;92.00;101596.50;5090632;28;20422;-82
2023/05/07 09:12:55;;;;;;;21.30;14.80;;;;;;;17.23;93.38;101592.06;5092116;28;20414;-82
2023/05/07 09:15:20;;;;;;;17.93;11.67;;;;;;;17.36;93.47;101600.41;5092041;28;20034;-82
2023/05/07 09:17:45;;;;;;;17.43;10.20;;;;;;;17.50;93.86;101597.38;5091416;28;20016;-83
2023/05/07 09:20:11;;;;;;;16.53;10.10;;;;;;;17.62;93.33;101592.63;5091998;28;20019;-82
2023/05/07 09:22:37;;;;;;;21.20;15.20;;;;;;;17.52;91.29;101594.69;5091617;28;20020;-82
2023/05/07 09:25:06;;;;;;;20.25;14.48;;;;;;;17.53;91.15;101599.03;5091504;28;20360;-83
2023/05/07 09:27:31;;;;;;;22.45;16.83;;;;;;;17.34;90.84;101611.88;5091749;28;20111;-83
2023/05/07 09:29:56;;;;;;;20.07;14.00;;;;;;;17.28;91.51;101594.56;5092115;28;20125;-83
2023/05/07 09:32:22;;;;;;;20.53;14.23;;;;;;;17.31;91.23;101593.59;5092426;28;20559;-82
2023/05/07 09:34:47;;;;;;;22.30;15.53;;;;;;;17.27;91.77;101598.97;5095860;28;20387;-83
2023/05/07 09:37:14;;;;;;;23.10;16.20;;;;;;;17.15;92.57;101583.59;5089314;28;20123;-83
2023/05/07 09:39:44;;;;;;;17.73;11.07;;;;;;;17.26;93.41;101588.50;5094627;28;20031;-83
2023/05/07 09:42:20;;;;;;;20.80;14.73;;;;;;;17.40;91.80;101602.03;5093981;28;20597;-82
2023/05/07 09:44:54;;;;;;;20.13;12.43;;;;;;;17.43;92.65;101599.31;5094779;28;20028;-83
2023/05/07 09:47:23;;;;;;;19.80;13.45;;;;;;;17.49;92.54;101606.16;5092723;28;20016;-83
2023/05/07 09:49:49;;;;;;;21.55;14.90;;;;;;;17.41;90.61;101600.25;5095466;28;20027;-84
2023/05/07 09:52:16;;;;;;;21.98;15.43;;;;;;;17.40;90.57;101604.66;5094576;28;20020;-82
2023/05/07 09:54:43;;;;;;;20.85;14.88;;;;;;;17.47;90.06;101614.94;5095016;28;20031;-82
2023/05/07 09:57:16;;;;;;;18.15;11.48;;;;;;;17.61;91.04;101604.88;5095558;28;20069;-83
2023/05/07 09:59:43;;;;;;;13.00;8.27;;;;;;;17.80;92.26;101602.50;5094399;28;20034;-83
2023/05/07 10:02:10;;;;;;;11.40;7.20;;;;;;;18.06;92.44;101608.69;5095235;28;20026;-83
2023/05/07 10:04:35;;;;;;;10.55;6.32;;;;;;;18.31;91.00;101608.66;5094524;28;20473;-83
2023/05/07 10:07:02;;;;;;;12.43;7.63;;;;;;;18.46;90.13;101609.03;5094488;28;20032;-83
2023/05/07 10:09:29;;;;;;;10.60;6.53;;;;;;;18.72;89.92;101612.44;5091428;28;20024;-83
2023/05/07 10:11:55;;;;;;;16.95;9.88;;;;;;;18.82;82.79;101604.16;5088193;28;20487;-83
2023/05/07 10:14:21;;;;;;;15.82;9.73;;;;;;;18.87;87.02;101595.22;5092836;28;20053;-82
2023/05/07 10:16:47;;;;;;;12.98;8.10;;;;;;;19.11;88.08;101609.25;5094054;28;20089;-82
2023/05/07 10:19:14;;;;;;;14.20;8.45;;;;;;;19.29;83.37;101612.94;5092334;28;20535;-83
2023/05/07 10:22:03;;;;;;;15.75;9.35;;;;;;;19.25;84.21;101596.38;5089831;28;20036;-83
2023/05/07 10:24:33;;;;;;;15.82;9.63;;;;;;;19.30;83.03;101612.03;5092418;28;20039;-83
2023/05/07 10:27:01;;;;;;;14.02;7.95;;;;;;;19.33;85.37;101609.25;5094342;28;20032;-84
2023/05/07 10:29:26;;;;;;;9.32;6.05;;;;;;;19.49;86.12;101606.84;5093970;28;20028;-84
2023/05/07 10:32:10;;;;;;;16.47;10.07;;;;;;;19.55;80.99;101611.88;5094794;28;20384;-83
2023/05/07 10:34:43;;;;;;;13.57;8.60;;;;;;;19.59;80.25;101612.59;5094264;28;20077;-82
2023/05/07 10:37:10;;;;;;;17.75;11.32;;;;;;;19.36;80.14;101611.78;5094911;28;20032;-83
2023/05/07 10:39:35;;;;;;;18.98;11.80;;;;;;;19.18;80.36;101608.09;5094331;28;20357;-83
2023/05/07 10:42:08;;;;;;;19.57;12.50;;;;;;;19.19;81.32;101607.19;5093825;28;20125;-82
2023/05/07 10:44:37;;;;;;;14.00;8.57;;;;;;;19.33;83.77;101604.00;5093417;28;20031;-82
2023/05/07 10:47:09;;;;;;;13.25;7.88;;;;;;;19.53;83.03;101608.44;5094629;28;20021;-83
2023/05/07 10:49:55;;;;;;;17.75;10.30;;;;;;;19.45;78.73;101603.50;5093527;28;20055;-82
2023/05/07 10:52:24;;;;;;;12.88;7.90;;;;;;;19.53;80.32;101610.25;5086420;28;20475;-82
2023/05/07 10:55:15;;;;;;;17.85;11.80;;;;;;;19.48;77.78;101599.03;5093878;28;20054;-82
2023/05/07 10:57:40;;;;;;;15.95;9.63;;;;;;;19.48;78.25;101599.88;5086312;28;20477;-82
2023/05/07 11:00:23;;;;;;;20.50;12.57;;;;;;;19.39;77.14;101608.16;5091624;28;20032;-81
2023/05/07 11:03:01;;;;;;;14.43;9.00;;;;;;;19.53;80.29;101599.72;5093066;28;20028;-81
2023/05/07 11:05:31;;;;;;;15.20;9.10;;;;;;;19.81;76.38;101602.06;5082738;28;20032;-83
2023/05/07 11:07:57;;;;;;;17.33;10.60;;;;;;;19.79;75.69;101600.38;5094368;28;20020;-84
2023/05/07 11:10:43;;;;;;;;;;;;;;;19.88;77.94;101600.91;5093864;28;20115;-83
2023/05/07 11:13:08;;;;;;;15.68;8.88;;;;;;;20.02;76.69;101596.81;5093252;28;19912;-86